createdAt,value
2022-12-31T00:02:07.119Z,59.85
2022-12-31T00:04:35.227Z,59.38
2022-12-31T00:07:03.267Z,59.54
2022-12-31T00:09:32.746Z,59.77
2022-12-31T00:12:00.787Z,59.68
2022-12-31T00:14:28.835Z,59.33
2022-12-31T00:16:57.491Z,59.55
2022-12-31T00:19:25.672Z,59.35
2022-12-31T00:21:53.705Z,59.55
2022-12-31T00:24:21.748Z,59.74
2022-12-31T00:26:51.185Z,59.64
2022-12-31T00:29:19.230Z,59.42
2022-12-31T00:31:47.288Z,59.66
2022-12-31T00:34:15.389Z,59.53
2022-12-31T00:36:43.507Z,59.31
2022-12-31T00:39:12.134Z,59.58
2022-12-31T00:41:40.164Z,60.32
2022-12-31T00:44:11.815Z,60.18
2022-12-31T00:49:07.290Z,60.02
2022-12-31T00:51:35.389Z,59.71
2022-12-31T00:54:03.533Z,59.51
2022-12-31T00:56:32.366Z,59.94
2022-12-31T00:59:01.390Z,60.62
2022-12-31T01:01:32.247Z,59.79
2022-12-31T01:04:02.620Z,60.00
2022-12-31T01:06:31.172Z,59.53
2022-12-31T01:08:59.494Z,59.93
2022-12-31T01:11:29.415Z,60.19
2022-12-31T01:13:59.998Z,60.63
2022-12-31T01:16:33.117Z,60.34
2022-12-31T01:19:02.747Z,61.09
2022-12-31T01:21:30.861Z,61.76
2022-12-31T01:23:59.753Z,62.00
2022-12-31T01:26:29.219Z,62.37
2022-12-31T01:28:57.821Z,62.76
2022-12-31T01:31:26.941Z,63.11
2022-12-31T01:33:56.788Z,63.39
2022-12-31T01:36:26.855Z,64.08
2022-12-31T01:38:55.812Z,64.29
2022-12-31T01:41:25.617Z,64.36
2022-12-31T01:43:55.895Z,63.79
2022-12-31T01:46:28.767Z,64.17
2022-12-31T01:49:01.647Z,64.40
2022-12-31T01:51:34.445Z,64.30
2022-12-31T01:54:05.063Z,64.15
2022-12-31T01:56:33.981Z,64.42
2022-12-31T01:59:07.647Z,64.03
2022-12-31T02:01:38.507Z,63.77
2022-12-31T02:04:12.065Z,63.48
2022-12-31T02:06:45.206Z,63.72
2022-12-31T02:09:13.969Z,64.62
2022-12-31T02:11:41.996Z,64.35
2022-12-31T02:14:16.770Z,64.42
2022-12-31T02:16:52.845Z,64.38
2022-12-31T02:20:05.046Z,64.73
2022-12-31T02:22:50.992Z,64.91
2022-12-31T02:25:37.987Z,64.59
2022-12-31T02:28:20.534Z,65.16
2022-12-31T02:30:54.959Z,65.30
2022-12-31T02:33:30.100Z,64.78
2022-12-31T02:36:01.052Z,65.37
2022-12-31T02:38:32.073Z,65.53
2022-12-31T02:41:00.899Z,64.92
2022-12-31T02:43:29.093Z,65.96
2022-12-31T02:46:10.233Z,65.44
2022-12-31T02:48:46.491Z,64.95
2022-12-31T02:51:32.707Z,65.08
2022-12-31T02:54:19.162Z,65.21
2022-12-31T02:56:54.825Z,65.62
2022-12-31T02:59:45.053Z,65.94
2022-12-31T03:02:19.669Z,65.78
2022-12-31T03:04:52.431Z,65.89
2022-12-31T03:07:23.750Z,65.88
2022-12-31T03:09:52.033Z,65.71
2022-12-31T03:12:39.387Z,66.11
2022-12-31T03:15:20.046Z,65.53
2022-12-31T03:17:55.884Z,65.41
2022-12-31T03:20:44.788Z,65.56
2022-12-31T03:23:17.453Z,65.81
2022-12-31T03:25:44.883Z,65.48
2022-12-31T03:28:15.463Z,65.27
2022-12-31T03:30:46.054Z,64.97
2022-12-31T03:33:16.245Z,65.62
2022-12-31T03:35:46.343Z,65.40
2022-12-31T03:38:14.786Z,65.29
2022-12-31T03:40:44.747Z,65.50
2022-12-31T03:43:13.025Z,65.43
2022-12-31T03:45:41.117Z,64.87
2022-12-31T03:48:10.595Z,64.82
2022-12-31T03:50:40.094Z,64.72
2022-12-31T03:53:08.150Z,65.10
2022-12-31T03:55:36.359Z,64.51
2022-12-31T03:58:04.838Z,64.86
2022-12-31T04:00:33.067Z,64.83
2022-12-31T04:03:01.200Z,64.12
2022-12-31T04:05:29.208Z,63.82
2022-12-31T04:07:58.689Z,63.77
2022-12-31T04:10:26.682Z,63.61
2022-12-31T04:12:54.755Z,64.19
2022-12-31T04:15:23.267Z,64.19
2022-12-31T04:17:51.317Z,64.35
2022-12-31T04:20:21.089Z,63.95
2022-12-31T04:22:50.392Z,63.81
2022-12-31T04:25:20.105Z,63.56
2022-12-31T04:27:49.154Z,63.76
2022-12-31T04:30:17.260Z,64.23
2022-12-31T04:32:45.328Z,63.90
2022-12-31T04:35:13.371Z,63.68
2022-12-31T04:37:41.545Z,63.43
2022-12-31T04:40:10.514Z,63.69
2022-12-31T04:42:40.037Z,63.83
2022-12-31T04:45:09.138Z,63.74
2022-12-31T04:47:37.252Z,63.89
2022-12-31T04:50:06.100Z,63.82
2022-12-31T04:52:38.729Z,64.00
2022-12-31T04:55:10.782Z,63.89
2022-12-31T04:57:40.250Z,63.70
2022-12-31T05:00:09.798Z,64.31
2022-12-31T05:02:38.084Z,64.42
2022-12-31T05:05:06.911Z,64.27
2022-12-31T05:07:34.978Z,64.18
2022-12-31T05:10:03.051Z,63.90
2022-12-31T05:12:31.114Z,63.75
2022-12-31T05:15:00.527Z,64.19
2022-12-31T05:17:28.637Z,64.50
2022-12-31T05:19:56.636Z,64.97
2022-12-31T05:22:30.393Z,65.21
2022-12-31T05:24:59.344Z,64.84
2022-12-31T05:27:28.680Z,65.32
2022-12-31T05:29:56.731Z,65.35
2022-12-31T05:32:26.196Z,65.25
2022-12-31T05:34:54.368Z,65.30
2022-12-31T05:37:22.424Z,64.92
2022-12-31T05:39:50.534Z,65.03
2022-12-31T05:42:18.529Z,65.11
2022-12-31T05:44:46.627Z,65.40
2022-12-31T05:47:14.827Z,64.70
2022-12-31T05:49:44.248Z,65.21
2022-12-31T05:52:12.304Z,64.40
2022-12-31T05:54:40.352Z,64.78
2022-12-31T05:57:08.583Z,65.12
2022-12-31T05:59:36.951Z,64.96
2022-12-31T06:02:05.339Z,64.88
2022-12-31T06:04:34.968Z,65.09
2022-12-31T06:07:04.367Z,65.17
2022-12-31T06:09:32.459Z,65.11
2022-12-31T06:12:00.489Z,65.29
2022-12-31T06:14:28.528Z,65.21
2022-12-31T06:16:56.581Z,65.83
2022-12-31T06:19:24.762Z,65.08
2022-12-31T06:21:52.982Z,65.12
2022-12-31T06:24:22.432Z,65.38
2022-12-31T06:26:50.520Z,65.48
2022-12-31T06:29:18.740Z,65.14
2022-12-31T06:31:48.244Z,65.43
2022-12-31T06:34:16.706Z,66.04
2022-12-31T06:36:44.748Z,65.60
2022-12-31T06:39:12.774Z,65.93
2022-12-31T06:41:42.260Z,65.83
2022-12-31T06:44:10.295Z,65.67
2022-12-31T06:46:38.387Z,65.40
2022-12-31T06:49:06.442Z,65.49
2022-12-31T06:51:34.487Z,65.19
2022-12-31T06:54:02.565Z,65.53
2022-12-31T06:56:33.949Z,65.58
2022-12-31T06:59:05.165Z,65.20
2022-12-31T07:01:50.932Z,64.98
2022-12-31T07:05:06.473Z,64.78
2022-12-31T07:07:39.814Z,65.14
2022-12-31T07:10:27.312Z,64.72
2022-12-31T07:13:12.604Z,64.52
2022-12-31T07:15:53.696Z,65.08
2022-12-31T07:18:28.833Z,64.99
2022-12-31T07:20:57.572Z,65.24
2022-12-31T07:23:26.203Z,65.28
2022-12-31T07:26:01.025Z,65.15
2022-12-31T07:28:41.707Z,65.08
2022-12-31T07:31:23.587Z,65.20
2022-12-31T07:33:59.911Z,65.09
2022-12-31T07:36:44.606Z,65.42
2022-12-31T07:39:15.601Z,65.72
2022-12-31T07:41:52.973Z,65.75
2022-12-31T07:44:46.312Z,66.21
2022-12-31T07:47:22.205Z,66.41
2022-12-31T07:49:50.978Z,66.33
2022-12-31T07:52:20.094Z,66.40
2022-12-31T07:54:48.847Z,65.78
2022-12-31T07:57:19.157Z,65.27
2022-12-31T08:00:00.117Z,65.34
2022-12-31T08:02:55.106Z,65.05
2022-12-31T08:05:30.912Z,65.26
2022-12-31T08:08:08.286Z,65.28
2022-12-31T08:10:44.600Z,65.15
2022-12-31T08:13:14.033Z,65.98
2022-12-31T08:15:42.772Z,66.14
2022-12-31T08:18:12.951Z,65.96
2022-12-31T08:20:49.268Z,66.04
2022-12-31T08:23:25.951Z,65.69
2022-12-31T08:26:11.771Z,66.07
2022-12-31T08:28:57.719Z,65.68
2022-12-31T08:31:35.578Z,66.20
2022-12-31T08:34:11.850Z,65.73
2022-12-31T08:36:48.264Z,66.01
2022-12-31T08:39:33.024Z,65.81
2022-12-31T08:42:05.285Z,66.11
2022-12-31T08:44:40.657Z,65.48
2022-12-31T08:47:19.196Z,65.84
2022-12-31T08:49:49.404Z,66.04
2022-12-31T08:52:23.744Z,66.40
2022-12-31T08:54:52.649Z,65.86
2022-12-31T08:57:28.823Z,65.99
2022-12-31T09:00:07.039Z,65.62
2022-12-31T09:02:48.968Z,66.46
2022-12-31T09:05:25.281Z,65.82
2022-12-31T09:08:03.939Z,66.20
2022-12-31T09:10:36.079Z,66.29
2022-12-31T09:13:16.354Z,66.40
2022-12-31T09:15:49.892Z,67.19
2022-12-31T09:18:18.645Z,67.82
2022-12-31T09:20:48.688Z,67.71
2022-12-31T09:23:17.352Z,67.65
2022-12-31T09:25:51.396Z,67.22
2022-12-31T09:28:28.035Z,66.66
2022-12-31T09:31:04.268Z,66.62
2022-12-31T09:33:43.850Z,67.00
2022-12-31T09:36:18.657Z,67.68
2022-12-31T09:38:53.058Z,67.39
2022-12-31T09:41:45.997Z,68.09
2022-12-31T09:44:56.183Z,67.80
2022-12-31T09:48:03.823Z,67.53
2022-12-31T09:50:50.564Z,67.78
2022-12-31T09:53:40.660Z,68.79
2022-12-31T09:56:16.912Z,68.23
2022-12-31T09:58:58.225Z,67.88
2022-12-31T10:01:37.411Z,68.46
2022-12-31T10:04:32.252Z,67.54
2022-12-31T10:07:16.792Z,66.72
2022-12-31T10:10:04.119Z,66.91
2022-12-31T10:13:10.092Z,66.82
2022-12-31T10:15:54.715Z,66.76
2022-12-31T10:18:39.076Z,66.80
2022-12-31T10:21:33.024Z,66.75
2022-12-31T10:24:26.941Z,66.49
2022-12-31T10:27:13.060Z,66.31
2022-12-31T10:29:48.612Z,66.01
2022-12-31T10:32:25.053Z,66.36
2022-12-31T10:35:13.460Z,65.79
2022-12-31T10:37:48.233Z,65.86
2022-12-31T10:40:30.818Z,65.21
2022-12-31T10:43:46.747Z,64.86
2022-12-31T10:46:49.178Z,64.71
2022-12-31T10:50:00.630Z,64.46
2022-12-31T10:52:58.306Z,64.48
2022-12-31T10:56:14.137Z,64.37
2022-12-31T10:59:03.955Z,63.17
2022-12-31T11:01:48.589Z,63.53
2022-12-31T11:04:53.612Z,63.81
2022-12-31T11:08:02.253Z,63.15
2022-12-31T11:11:09.297Z,63.09
2022-12-31T11:14:03.907Z,62.91
2022-12-31T11:16:46.014Z,62.28
2022-12-31T11:19:22.878Z,61.70
2022-12-31T11:22:12.630Z,61.67
2022-12-31T11:24:57.703Z,61.46
2022-12-31T11:27:48.965Z,62.03
2022-12-31T11:30:23.992Z,61.63
2022-12-31T11:33:08.162Z,61.31
2022-12-31T11:35:51.365Z,60.88
2022-12-31T11:38:25.918Z,60.76
2022-12-31T11:41:03.838Z,60.43
2022-12-31T11:43:38.463Z,61.13
2022-12-31T11:46:26.257Z,60.94
2022-12-31T11:49:13.173Z,60.76
2022-12-31T11:51:58.403Z,60.77
2022-12-31T11:54:51.627Z,61.13
2022-12-31T11:57:26.444Z,60.96
2022-12-31T11:59:58.998Z,61.87
2022-12-31T12:02:29.673Z,61.65
2022-12-31T12:05:08.580Z,62.09
2022-12-31T12:07:39.050Z,62.47
2022-12-31T12:10:20.630Z,62.41
2022-12-31T12:12:48.938Z,63.07
2022-12-31T12:15:22.979Z,63.70
2022-12-31T12:17:54.865Z,63.92
2022-12-31T12:20:30.567Z,64.36
2022-12-31T12:23:01.581Z,64.52
2022-12-31T12:25:39.349Z,65.34
2022-12-31T12:28:29.547Z,65.79
2022-12-31T12:31:01.216Z,65.75
2022-12-31T12:33:30.895Z,65.72
2022-12-31T12:36:12.715Z,65.69
2022-12-31T12:38:41.313Z,65.79
2022-12-31T12:41:19.863Z,66.06
2022-12-31T12:43:47.911Z,65.96
2022-12-31T12:46:24.239Z,66.15
2022-12-31T12:48:57.167Z,65.91
2022-12-31T12:51:38.557Z,65.90
2022-12-31T12:54:19.009Z,66.01
2022-12-31T12:56:57.621Z,65.92
2022-12-31T12:59:58.481Z,66.43
2022-12-31T13:03:01.362Z,66.20
2022-12-31T13:05:39.657Z,65.98
2022-12-31T13:08:21.317Z,65.76
2022-12-31T13:11:17.923Z,65.97
2022-12-31T13:13:55.417Z,65.66
2022-12-31T13:16:35.942Z,65.91
2022-12-31T13:19:12.678Z,66.17
2022-12-31T13:21:48.792Z,65.53
2022-12-31T13:24:30.599Z,65.27
2022-12-31T13:27:09.911Z,65.44
2022-12-31T13:29:40.199Z,65.64
2022-12-31T13:32:11.491Z,64.82
2022-12-31T13:34:44.064Z,65.17
2022-12-31T13:37:25.917Z,64.18
2022-12-31T13:40:01.007Z,64.61
2022-12-31T13:42:37.226Z,64.18
2022-12-31T13:45:12.766Z,64.00
2022-12-31T13:47:45.751Z,63.42
2022-12-31T13:50:20.849Z,63.15
2022-12-31T13:53:27.093Z,62.87
2022-12-31T13:56:02.103Z,62.95
2022-12-31T13:58:36.586Z,62.98
2022-12-31T14:01:13.048Z,63.40
2022-12-31T14:03:48.724Z,63.85
2022-12-31T14:06:30.430Z,63.89
2022-12-31T14:08:59.057Z,64.14
2022-12-31T14:11:49.455Z,64.50
2022-12-31T14:14:30.023Z,64.76
2022-12-31T14:17:04.340Z,65.08
2022-12-31T14:19:49.224Z,65.08
2022-12-31T14:22:23.441Z,65.00
2022-12-31T14:24:53.115Z,65.79
2022-12-31T14:27:25.846Z,65.77
2022-12-31T14:29:59.392Z,65.86
2022-12-31T14:32:56.691Z,66.17
2022-12-31T14:35:38.366Z,66.24
2022-12-31T14:38:19.146Z,66.85
2022-12-31T14:41:01.273Z,66.96
2022-12-31T14:43:41.541Z,67.11
2022-12-31T14:46:19.765Z,67.29
2022-12-31T14:48:56.912Z,66.84
2022-12-31T14:51:29.331Z,67.17
2022-12-31T14:53:59.172Z,67.27
2022-12-31T14:56:41.544Z,66.98
2022-12-31T14:59:27.072Z,67.01
2022-12-31T15:01:58.278Z,66.99
2022-12-31T15:04:33.927Z,66.81
2022-12-31T15:07:11.537Z,66.85
2022-12-31T15:09:57.736Z,67.02
2022-12-31T15:12:50.120Z,67.45
2022-12-31T15:15:39.632Z,67.35
2022-12-31T15:18:33.089Z,67.41
2022-12-31T15:21:21.916Z,67.49
2022-12-31T15:23:50.276Z,67.78
2022-12-31T15:26:24.547Z,67.78
2022-12-31T15:29:00.616Z,68.15
2022-12-31T15:31:29.585Z,68.41
2022-12-31T15:34:02.114Z,68.09
2022-12-31T15:36:32.970Z,68.09
2022-12-31T15:39:25.541Z,67.99
2022-12-31T15:44:50.080Z,66.91
2022-12-31T15:47:28.683Z,66.78
2022-12-31T15:50:02.919Z,67.15
2022-12-31T15:52:39.954Z,67.01
2022-12-31T15:55:09.582Z,67.08
2022-12-31T15:57:40.997Z,66.89
2022-12-31T16:00:17.087Z,66.80
2022-12-31T16:02:46.777Z,66.91
2022-12-31T16:05:23.302Z,66.42
2022-12-31T16:07:54.904Z,66.75
2022-12-31T16:10:26.321Z,66.48
2022-12-31T16:12:55.999Z,67.27
2022-12-31T16:15:28.501Z,67.17
2022-12-31T16:18:04.688Z,67.60
2022-12-31T16:20:35.710Z,68.50
2022-12-31T16:23:17.920Z,68.20
2022-12-31T16:25:46.915Z,68.45
2022-12-31T16:28:19.534Z,68.51
2022-12-31T16:30:58.894Z,69.13
2022-12-31T16:33:27.876Z,68.71
2022-12-31T16:35:59.064Z,68.92
2022-12-31T16:38:34.825Z,69.16
2022-12-31T16:41:17.719Z,69.42
2022-12-31T16:43:46.892Z,68.65
2022-12-31T16:46:26.806Z,68.38
2022-12-31T16:49:16.590Z,68.18
2022-12-31T16:51:50.083Z,67.93
2022-12-31T16:54:26.279Z,67.97
2022-12-31T16:57:07.224Z,67.22
2022-12-31T16:59:39.599Z,67.41
2022-12-31T17:02:17.081Z,66.90
2022-12-31T17:04:55.267Z,67.17
2022-12-31T17:07:43.438Z,66.59
2022-12-31T17:10:19.379Z,66.81
2022-12-31T17:13:27.440Z,66.77
2022-12-31T17:15:41.669Z,67.08
2022-12-31T17:18:18.373Z,67.07
2022-12-31T17:20:47.035Z,67.26
2022-12-31T17:23:24.873Z,66.96
2022-12-31T17:26:00.143Z,67.07
2022-12-31T17:28:31.963Z,67.48
2022-12-31T17:31:02.100Z,67.11
2022-12-31T17:33:32.509Z,66.91
2022-12-31T17:36:23.294Z,66.88
2022-12-31T17:38:52.800Z,67.09
2022-12-31T17:41:27.388Z,67.23
2022-12-31T17:43:57.152Z,68.07
2022-12-31T17:46:26.782Z,67.88
2022-12-31T17:49:02.211Z,68.07
2022-12-31T17:51:30.277Z,68.09
2022-12-31T17:54:01.419Z,67.37
2022-12-31T17:56:29.569Z,67.15
2022-12-31T17:58:57.647Z,67.09
2022-12-31T18:01:25.765Z,67.20
2022-12-31T18:03:53.804Z,66.84
2022-12-31T18:06:21.918Z,66.49
2022-12-31T18:08:55.444Z,65.78
2022-12-31T18:11:37.323Z,65.69
2022-12-31T18:14:07.049Z,65.43
2022-12-31T18:16:35.594Z,65.77
2022-12-31T18:19:03.942Z,65.18
2022-12-31T18:21:34.494Z,64.76
2022-12-31T18:26:32.624Z,64.90
2022-12-31T18:29:11.791Z,64.43
2022-12-31T18:31:40.550Z,63.88
2022-12-31T18:34:12.601Z,63.82
2022-12-31T18:36:40.997Z,63.92
2022-12-31T18:39:09.198Z,63.47
2022-12-31T18:41:42.046Z,63.68
2022-12-31T18:44:14.548Z,63.77
2022-12-31T18:46:42.941Z,63.73
2022-12-31T18:49:11.078Z,64.85
2022-12-31T18:51:39.265Z,64.85
2022-12-31T18:54:08.164Z,64.43
2022-12-31T18:56:37.125Z,64.05
2022-12-31T18:59:09.269Z,63.77
2022-12-31T19:01:40.253Z,63.44
2022-12-31T19:04:14.082Z,63.33
2022-12-31T19:06:42.593Z,63.27
2022-12-31T19:09:30.711Z,64.08
2022-12-31T19:12:00.795Z,63.69
2022-12-31T19:14:30.109Z,62.88
2022-12-31T19:19:27.569Z,62.71
2022-12-31T19:21:55.595Z,63.36
2022-12-31T19:24:26.532Z,62.87
2022-12-31T19:26:55.683Z,62.73
2022-12-31T19:29:25.644Z,62.86
2022-12-31T19:31:54.265Z,62.48
2022-12-31T19:34:23.717Z,62.24
2022-12-31T19:36:51.767Z,62.24
2022-12-31T19:39:21.863Z,61.84
2022-12-31T19:41:58.419Z,61.56
2022-12-31T19:44:27.595Z,62.00
2022-12-31T19:46:55.700Z,62.21
2022-12-31T19:49:25.146Z,62.20
2022-12-31T19:51:53.222Z,61.97
2022-12-31T19:54:21.240Z,61.58
2022-12-31T19:56:49.271Z,61.60
2022-12-31T19:59:17.320Z,61.76
2022-12-31T20:01:45.468Z,61.42
2022-12-31T20:04:13.755Z,61.40
2022-12-31T20:06:43.144Z,60.51
2022-12-31T20:09:12.869Z,60.79
2022-12-31T20:11:40.969Z,60.77
2022-12-31T20:14:08.976Z,60.86
2022-12-31T20:16:37.111Z,60.64
2022-12-31T20:19:06.039Z,60.74
2022-12-31T20:21:34.052Z,60.70
2022-12-31T20:24:03.600Z,60.41
2022-12-31T20:26:32.059Z,60.57
2022-12-31T20:29:00.179Z,59.88
2022-12-31T20:31:28.256Z,59.87
2022-12-31T20:33:56.687Z,58.96
2022-12-31T20:36:25.774Z,59.03
2022-12-31T20:38:53.901Z,59.07
2022-12-31T20:41:23.954Z,58.52
2022-12-31T20:43:52.397Z,58.83
2022-12-31T20:46:22.382Z,58.67
2022-12-31T20:48:52.422Z,58.25
2022-12-31T20:51:21.711Z,57.82
2022-12-31T20:53:51.438Z,57.65
2022-12-31T20:56:19.929Z,57.34
2022-12-31T20:58:49.397Z,57.11
2022-12-31T21:01:18.697Z,56.70
2022-12-31T21:04:05.876Z,56.85
2022-12-31T21:06:35.660Z,56.68
2022-12-31T21:09:06.364Z,56.33
2022-12-31T21:11:52.184Z,56.19
2022-12-31T21:14:22.218Z,56.32
2022-12-31T21:16:50.277Z,56.24
2022-12-31T21:19:18.324Z,55.55
2022-12-31T21:21:48.096Z,54.83
2022-12-31T21:24:21.737Z,55.50
2022-12-31T21:26:51.551Z,54.95
2022-12-31T21:29:21.011Z,54.72
2022-12-31T21:31:49.040Z,54.20
2022-12-31T21:34:17.044Z,53.51
2022-12-31T21:36:45.088Z,52.78
2022-12-31T21:39:13.131Z,52.72
2022-12-31T21:41:53.208Z,52.30
2022-12-31T21:44:23.925Z,51.34
2022-12-31T21:47:33.253Z,51.75
2022-12-31T21:49:43.849Z,51.32
2022-12-31T21:52:28.578Z,51.44
2022-12-31T21:55:15.383Z,51.27
2022-12-31T21:58:15.541Z,51.46
2022-12-31T22:00:51.706Z,51.64
2022-12-31T22:03:27.547Z,51.38
2022-12-31T22:05:58.429Z,51.62
2022-12-31T22:08:26.905Z,51.81
2022-12-31T22:10:55.075Z,51.68
2022-12-31T22:13:24.218Z,51.43
2022-12-31T22:16:03.832Z,51.08
2022-12-31T22:18:34.437Z,50.98
2022-12-31T22:21:04.559Z,50.99
2022-12-31T22:23:34.307Z,51.22
2022-12-31T22:26:03.274Z,50.74
2022-12-31T22:28:38.619Z,50.77
2022-12-31T22:31:10.218Z,50.78
2022-12-31T22:33:38.368Z,50.61
2022-12-31T22:36:09.071Z,50.86
2022-12-31T22:38:37.464Z,50.92
2022-12-31T22:41:07.608Z,50.77
2022-12-31T22:43:37.362Z,50.98
2022-12-31T22:46:11.681Z,50.62
2022-12-31T22:48:39.919Z,51.00
2022-12-31T22:51:09.076Z,50.75
2022-12-31T22:53:38.561Z,50.83
2022-12-31T22:56:07.469Z,50.53
2022-12-31T22:58:35.818Z,50.72
2022-12-31T23:01:06.035Z,50.50
2022-12-31T23:03:35.914Z,50.57
2022-12-31T23:06:03.982Z,50.88
2022-12-31T23:08:32.060Z,50.60
2022-12-31T23:10:59.838Z,50.74
2022-12-31T23:13:50.441Z,50.78
2022-12-31T23:16:37.042Z,50.77
2022-12-31T23:19:25.179Z,50.71
2022-12-31T23:22:10.740Z,50.98
2022-12-31T23:24:39.452Z,51.27
2022-12-31T23:27:08.385Z,51.01
2022-12-31T23:29:45.507Z,51.17
2022-12-31T23:32:15.309Z,50.69
2022-12-31T23:34:45.554Z,50.88
2022-12-31T23:37:14.087Z,50.81
2022-12-31T23:39:42.550Z,50.83
2022-12-31T23:42:10.885Z,50.53
2022-12-31T23:44:38.940Z,50.61
2022-12-31T23:47:07.160Z,50.61
2022-12-31T23:49:35.221Z,50.61
2022-12-31T23:52:05.002Z,50.39
2022-12-31T23:54:33.157Z,50.82
2022-12-31T23:57:01.150Z,51.13
2022-12-31T23:59:29.191Z,51.29
